This is the latest recevied weather packets stored in our database for station/object K4AMF. If no packets are shown the sender has not sent any weather packets the latest 10 day(s).
| Time | Temp. | Humidity | Pressure | Rain* | Wind** | Luminosity | Snow |
|---|---|---|---|---|---|---|---|
| 1777567594 | 28.89° C | 68% | 1011.6 hPa | 0 mm | - | 403 W/m² | - |
| 1777567292 | 28.89° C | 67% | 1011.8 hPa | 0 mm | - | 861 W/m² | - |
| 1777566990 | 28.89° C | 68% | 1011.6 hPa | 0 mm | - | 533 W/m² | - |
| 1777566687 | 28.89° C | 69% | 1011.7 hPa | 0 mm | - | 490 W/m² | - |
| 1777566385 | 28.33° C | 70% | 1011.9 hPa | 0 mm | - | 908 W/m² | - |
| 1777566082 | 28.33° C | 71% | 1011.8 hPa | 0 mm | - | 244 W/m² | - |
| 1777565777 | 28.33° C | 71% | 1012 hPa | 0 mm | - | 293 W/m² | - |
| 1777565474 | 27.78° C | 71% | 1012.1 hPa | 0 mm | - | 884 W/m² | - |
| 1777565170 | 27.78° C | 71% | 1012.2 hPa | 0 mm | - | 514 W/m² | - |
| 1777564867 | 28.33° C | 69% | 1012.2 hPa | 0 mm | - | 571 W/m² | - |
| 1777564567 | 27.78° C | 73% | 1012 hPa | 0 mm | - | 658 W/m² | - |
| 1777564263 | 27.22° C | 74% | 1012.1 hPa | 0 mm | - | 492 W/m² | - |
| 1777563960 | 27.22° C | 75% | 1008.4 hPa | 0 mm | - | 602 W/m² | - |
| 1777563656 | 27.78° C | 74% | 1008.4 hPa | 0 mm | - | 636 W/m² | - |
| 1777563356 | 27.78° C | 73% | 1008.7 hPa | 0 mm | - | 741 W/m² | - |
| 1777563053 | 26.67° C | 75% | 1008.7 hPa | 0 mm | - | 897 W/m² | - |
| 1777562749 | 26.67° C | 76% | 1008.9 hPa | 0 mm | - | 336 W/m² | - |
| 1777562447 | 27.22° C | 76% | 1008.7 hPa | 0 mm | - | 283 W/m² | - |
| 1777562144 | 27.22° C | 76% | 1008.4 hPa | 0 mm | - | 387 W/m² | - |
| 1777561842 | 26.67° C | 76% | 1008.5 hPa | 0 mm | - | 790 W/m² | - |
| 1777561538 | 26.67° C | 78% | 1008.7 hPa | 0 mm | - | 949 W/m² | - |
| 1777561233 | 26.67° C | 77% | 1008.6 hPa | 0 mm | - | 723 W/m² | - |
| 1777560933 | 25.56° C | 80% | 1008.4 hPa | 0 mm | - | 888 W/m² | - |
| 1777560630 | 25.56° C | 81% | 1008.3 hPa | 0 mm | - | 797 W/m² | - |
| 1777560328 | 25.56° C | 82% | 1008.4 hPa | 0 mm | - | 322 W/m² | - |
* Rain latest hour (hover to see other rain measurements)
** Current wind speed in m/s (hover to see current wind gust speed)